Latest Weather Observations for Mount Moornapa

IDV60801

Issued at 10:32 pm EDT Monday 23 October 2017 (issued every 30 minutes, with the page automatically refreshed every 10 minutes)

About weather observations | Map of weather stations | Latest weather observations for VIC | Other Formats
Station Details ID: 085296 Name: MOUNT MOORNAPA Lat: -37.75 Lon: 147.14 Height: 480.0 m
Data from the previous 72 hours. | See also: Recent months at Mount Moornapa
Date/Time
EDT
Temp
°C
App
Temp
°C
Dew
Point
°C
Rel
Hum
%
Delta-T
°C
Wind Press
QNH
hPa
Press
MSL
hPa
Rain since
9am
mm
Dir  Spd
km/h
Gust
km/h
Spd
kts
Gust
kts
23/10:30pm 11.4 10.3 10.1 92 0.7 ENE 6 11 3 6 - - 0.0
23/10:00pm 11.6 10.6 10.2 91 0.7 E 6 11 3 6 - - 0.0
23/09:30pm 11.7 11.1 10.3 91 0.7 E 4 11 2 6 - - 0.0
23/09:00pm 11.8 10.8 10.2 90 0.8 E 6 13 3 7 - - 0.0
23/08:30pm 12.1 11.4 10.2 88 1.0 E 4 9 2 5 - - 0.0
23/08:00pm 12.5 11.5 10.2 86 1.2 ESE 6 11 3 6 - - 0.0
23/07:30pm 13.0 12.0 10.4 84 1.4 ESE 6 13 3 7 - - 0.0
23/07:00pm 13.8 12.6 10.2 79 1.9 ESE 7 19 4 10 - - 0.0
23/06:30pm 15.1 14.0 10.5 74 2.5 SE 7 17 4 9 - - 0.0
23/06:00pm 16.7 15.6 10.8 68 3.2 SE 7 13 4 7 - - 0.0
23/05:30pm 17.4 16.3 10.8 65 3.6 SE 7 13 4 7 - - 0.0
23/05:00pm 19.5 18.6 10.5 56 5.0 SSE 6 13 3 7 - - 0.0
23/04:30pm 19.8 18.9 10.8 56 5.0 S 6 15 3 8 - - 0.0
23/04:00pm 19.3 17.9 9.5 53 5.3 S 7 15 4 8 - - 0.0
23/03:30pm 20.6 19.5 10.1 51 5.8 S 6 13 3 7 - - 0.0
23/03:00pm 20.2 18.9 10.0 52 5.6 SSW 7 20 4 11 - - 0.0
23/02:30pm 20.7 19.5 10.2 51 5.8 S 7 15 4 8 - - 0.0
23/02:00pm 21.2 19.8 9.4 47 6.5 SSE 7 11 4 6 - - 0.0
23/01:30pm 20.5 18.8 8.5 46 6.4 S 7 13 4 7 - - 0.0
23/01:00pm 20.3 18.8 8.6 47 6.3 S 6 11 3 6 - - 0.0
23/12:30pm 19.5 18.3 7.9 47 6.1 SE 4 7 2 4 - - 0.0
23/12:00pm 18.3 17.0 7.7 50 5.5 SSE 4 9 2 5 - - 0.0
23/11:30am 16.9 15.4 7.0 52 5.0 SW 4 6 2 3 - - 0.0
23/11:00am 16.3 14.9 7.3 55 4.6 S 4 7 2 4 - - 0.0
23/10:30am 15.9 14.6 7.7 58 4.2 SSW 4 7 2 4 - - 0.0
23/10:00am 15.2 13.9 7.7 61 3.8 SSW 4 6 2 3 - - 0.0
23/09:30am 14.0 13.1 7.8 66 3.1 ESE 2 6 1 3 - - 0.0
23/09:00am 12.3 11.4 7.6 73 2.3 ESE 2 6 1 3 - - 0.0
23/08:30am 10.3 8.9 7.2 81 1.5 SSE 4 6 2 3 - - 0.0
23/08:00am 10.1 9.4 6.8 80 1.6 CALM 0 0 0 0 - - 0.0
23/07:30am 9.1 8.4 7.1 87 1.0 CALM 0 0 0 0 - - 0.0
23/07:00am 8.5 7.8 6.8 89 0.8 CALM 0 0 0 0 - - 0.0
23/06:30am 8.3 7.5 6.4 88 0.9 CALM 0 0 0 0 - - 0.0
23/06:00am 8.2 7.4 6.5 89 0.8 CALM 0 0 0 0 - - 0.0
23/05:30am 8.4 7.6 6.7 89 0.8 CALM 0 0 0 0 - - 0.0
23/05:00am 8.3 7.6 7.1 92 0.6 CALM 0 0 0 0 - - 0.0
23/04:30am 8.2 7.6 7.3 94 0.4 CALM 0 2 0 1 - - 0.0
23/04:00am 8.1 6.7 7.3 95 0.4 NW 4 6 2 3 - - 0.0
23/03:30am 8.2 6.5 7.4 95 0.4 NNW 6 7 3 4 - - 0.0
23/03:00am 8.1 6.7 7.2 94 0.4 NW 4 6 2 3 - - 0.0
23/02:30am 7.5 5.5 6.4 93 0.5 NW 6 6 3 3 - - 0.0
23/02:00am 8.1 6.1 6.9 92 0.6 WNW 7 13 4 7 - - 0.0
23/01:30am 8.6 6.3 7.4 92 0.6 W 9 17 5 9 - - 0.0
23/01:00am 8.7 6.0 7.2 90 0.7 WSW 11 20 6 11 - - 0.0
23/12:30am 8.8 6.1 7.3 90 0.7 W 11 22 6 12 - - 0.0
23/12:00am 8.8 6.1 7.4 91 0.7 W 11 20 6 11 - - 0.0
 
Date/Time
EDT
Temp
°C
App
Temp
°C
Dew
Point
°C
Rel
Hum
%
Delta-T
°C
Wind Press
QNH
hPa
Press
MSL
hPa
Rain since
9am
mm
Dir  Spd
km/h
Gust
km/h
Spd
kts
Gust
kts
22/11:30pm 8.8 6.2 7.7 93 0.5 WSW 11 20 6 11 - - 0.0
22/11:00pm 8.8 6.6 7.9 94 0.4 WSW 9 17 5 9 - - 0.0
22/10:30pm 9.0 6.9 8.1 94 0.4 SW 9 19 5 10 - - 0.0
22/10:00pm 9.1 7.5 8.2 94 0.4 SW 6 15 3 8 - - 0.0
22/09:30pm 9.4 7.7 8.5 94 0.4 SW 7 13 4 7 - - 0.0
22/09:00pm 9.4 7.8 8.2 92 0.6 SW 6 11 3 6 - - 0.0
22/08:30pm 9.9 8.3 8.0 88 0.9 SSW 6 13 3 7 - - 0.0
22/08:00pm 10.6 9.0 7.8 83 1.4 SSW 6 15 3 8 - - 0.0
22/07:30pm 11.7 10.0 8.2 79 1.8 S 7 13 4 7 - - 0.0
22/07:00pm 13.2 11.5 8.5 73 2.4 SSW 7 22 4 12 - - 0.0
22/06:30pm 14.1 12.0 8.3 68 3.0 S 9 19 5 10 - - 0.0
22/06:00pm 15.7 14.1 8.7 63 3.7 S 7 13 4 7 - - 0.0
22/05:30pm 16.2 14.6 8.2 59 4.2 SW 6 20 3 11 - - 0.0
22/05:00pm 16.6 15.0 8.6 59 4.2 SW 7 17 4 9 - - 0.0
22/04:30pm 15.2 13.2 8.7 65 3.4 SSE 9 13 5 7 - - 0.0
22/04:00pm 16.1 14.4 7.6 57 4.4 SSW 6 20 3 11 - - 0.0
22/03:30pm 16.3 14.2 8.3 59 4.2 SSW 9 24 5 13 - - 0.0
22/03:00pm 16.0 14.6 8.7 62 3.8 SW 6 15 3 8 - - 0.0
22/02:30pm 16.1 14.0 8.1 59 4.1 SW 9 24 5 13 - - 0.0
22/02:00pm 16.1 14.5 8.8 62 3.8 WSW 7 15 4 8 - - 0.0
22/01:30pm 15.0 13.8 9.4 69 3.0 SSW 6 17 3 9 - - 0.0
22/01:00pm 13.7 11.4 7.5 66 3.1 WSW 9 24 5 13 - - 0.0
22/12:30pm 12.7 11.2 8.4 75 2.2 SW 6 15 3 8 - - 0.0
22/12:00pm 11.4 9.7 7.5 77 1.9 SW 6 17 3 9 - - 0.0
22/11:30am 11.5 10.2 7.6 77 1.9 WSW 4 11 2 6 - - 0.0
22/11:00am 11.2 9.6 8.2 82 1.5 SW 6 13 3 7 - - 0.0
22/10:30am 10.5 8.7 7.2 80 1.6 WSW 6 13 3 7 - - 0.0
22/10:00am 10.8 9.4 7.3 79 1.7 WSW 4 11 2 6 - - 0.0
22/09:30am 10.2 8.1 6.7 79 1.7 WSW 7 19 4 10 - - 0.0
22/09:00am 10.8 8.7 6.7 76 2.0 WSW 7 13 4 7 - - 0.0
22/08:30am 9.8 7.2 6.3 79 1.7 WSW 9 17 5 9 - - 0.0
22/08:00am 8.9 5.5 6.0 82 1.4 W 13 20 7 11 - - 0.0
22/07:30am 8.8 5.7 5.7 81 1.4 W 11 17 6 9 - - 0.0
22/07:00am 8.6 6.1 4.8 77 1.7 WSW 7 17 4 9 - - 0.0
22/06:30am 8.3 5.8 4.7 78 1.6 W 7 13 4 7 - - 0.0
22/06:00am 8.4 6.1 4.8 78 1.6 W 6 11 3 6 - - 0.0
22/05:30am 8.8 6.0 5.0 77 1.7 WSW 9 20 5 11 - - 0.0
22/05:00am 7.7 4.8 4.5 80 1.4 WNW 9 15 5 8 - - 0.0
22/04:30am 7.1 4.1 4.1 81 1.3 NNW 9 13 5 7 - - 0.0
22/04:00am 7.4 4.9 4.9 84 1.1 NW 7 11 4 6 - - 0.0
22/03:30am 7.3 4.2 5.6 89 0.8 WNW 11 20 6 11 - - 0.0
22/03:00am 7.2 4.5 5.5 89 0.8 W 9 19 5 10 - - 0.0
22/02:30am 7.5 5.3 6.0 90 0.7 WSW 7 13 4 7 - - 0.0
22/02:00am 7.4 4.8 6.0 91 0.7 WSW 9 17 5 9 - - 0.0
22/01:30am 7.0 4.3 5.6 91 0.6 SW 9 19 5 10 - - 0.0
22/01:00am 7.4 4.7 5.4 87 0.9 SW 9 17 5 9 - - 0.0
22/12:30am 7.3 4.5 5.1 86 1.0 WSW 9 19 5 10 - - 0.0
22/12:00am 7.4 4.6 5.0 85 1.1 WSW 9 19 5 10 - - 0.0
 
Date/Time
EDT
Temp
°C
App
Temp
°C
Dew
Point
°C
Rel
Hum
%
Delta-T
°C
Wind Press
QNH
hPa
Press
MSL
hPa
Rain since
9am
mm
Dir  Spd
km/h
Gust
km/h
Spd
kts
Gust
kts
21/11:30pm 7.3 4.8 4.8 84 1.1 WSW 7 13 4 7 - - 0.0
21/11:00pm 7.6 4.4 5.1 84 1.1 WSW 11 20 6 11 - - 0.0
21/10:30pm 7.7 5.2 4.8 82 1.3 WSW 7 15 4 8 - - 0.0
21/10:00pm 8.3 4.7 5.1 80 1.5 WSW 13 24 7 13 - - 0.0
21/09:30pm 8.0 5.2 5.3 83 1.2 SW 9 19 5 10 - - 0.0
21/09:00pm 8.2 5.1 5.5 83 1.2 SW 11 22 6 12 - - 0.0
21/08:30pm 8.3 6.5 5.4 82 1.3 S 4 9 2 5 - - 0.0
21/08:00pm 9.0 6.7 5.0 76 1.8 SW 6 9 3 5 - - 0.0
21/07:30pm 9.8 7.5 5.0 72 2.2 SW 6 15 3 8 - - 0.0
21/07:00pm 10.6 8.4 6.0 73 2.2 SSW 7 20 4 11 - - 0.0
21/06:30pm 11.3 8.7 6.2 71 2.5 S 9 20 5 11 - - 0.0
21/06:00pm 12.4 9.4 6.2 66 3.0 S 11 30 6 16 - - 0.0
21/05:30pm 13.8 11.3 6.4 61 3.6 S 9 22 5 12 - - 0.0
21/05:00pm 14.3 12.0 7.4 63 3.5 S 9 15 5 8 - - 0.0
21/04:30pm 13.8 11.2 5.9 59 3.9 S 9 19 5 10 - - 0.0
21/04:00pm 14.5 11.8 5.8 56 4.3 S 9 20 5 11 - - 0.0
21/03:30pm 14.0 10.8 5.1 55 4.3 S 11 22 6 12 - - 0.0
21/03:00pm 14.7 12.1 6.0 56 4.3 S 9 17 5 9 - - 0.0
21/02:30pm 14.9 13.0 6.7 58 4.1 S 6 13 3 7 - - 0.0
21/02:00pm 15.1 12.9 6.4 56 4.3 S 7 11 4 6 - - 0.0
21/01:30pm 14.2 12.1 5.8 57 4.1 SSW 6 13 3 7 - - 0.0
21/01:00pm 14.3 12.4 6.6 60 3.8 S 6 9 3 5 - - 0.0
21/12:30pm 12.7 10.6 5.8 63 3.3 SSW 6 20 3 11 - - 0.0
21/12:00pm 12.6 10.4 5.3 61 3.5 WSW 6 13 3 7 - - 0.0
21/11:30am 11.3 9.0 4.7 64 3.1 WSW 6 13 3 7 - - 0.0
21/11:00am 10.5 8.2 4.9 68 2.6 SW 6 11 3 6 - - 0.0
21/10:30am 10.2 7.7 4.6 68 2.6 W 7 15 4 8 - - 0.0
21/10:00am 9.7 7.3 4.3 69 2.5 WNW 6 15 3 8 - - 0.0
21/09:30am 9.0 6.6 4.4 73 2.1 WSW 6 11 3 6 - - 0.0
21/09:00am 8.0 5.0 4.0 76 1.8 WSW 9 20 5 11 - - 0.0
21/08:30am 7.7 5.0 3.7 76 1.8 WSW 7 15 4 8 - - 0.0
21/08:00am 7.4 4.9 4.0 79 1.5 WSW 6 15 3 8 - - 0.0
21/07:30am 7.3 4.7 4.1 80 1.4 WSW 7 15 4 8 - - 0.0
21/07:00am 7.2 4.8 4.2 81 1.3 SW 6 11 3 6 - - 0.0
21/06:30am 7.0 3.9 3.6 79 1.5 WSW 9 24 5 13 - - 0.0
21/06:00am 7.1 4.0 3.7 79 1.5 WSW 9 20 5 11 - - 0.0
21/05:30am 7.1 4.0 3.7 79 1.5 WSW 9 19 5 10 - - 0.0
21/05:00am 7.2 4.1 3.8 79 1.5 WSW 9 20 5 11 - - 0.0
21/04:30am 7.2 4.5 3.6 78 1.6 W 7 17 4 9 - - 0.0
21/04:00am 7.2 4.5 3.8 79 1.5 WSW 7 15 4 8 - - 0.0
21/03:30am 7.2 3.8 3.8 79 1.5 W 11 17 6 9 - - 0.0
21/03:00am 7.2 4.6 4.0 80 1.4 SW 7 17 4 9 - - 0.0
21/02:30am 7.2 4.5 3.6 78 1.6 WSW 7 13 4 7 - - 0.0
21/02:00am 7.2 4.1 3.6 78 1.6 W 9 19 5 10 - - 0.0
21/01:30am 7.2 4.1 3.8 79 1.5 W 9 17 5 9 - - 0.0
21/01:00am 7.2 4.1 3.8 79 1.5 W 9 15 5 8 - - 0.0
21/12:30am 7.1 4.1 4.1 81 1.3 W 9 17 5 9 - - 0.0
21/12:00am 6.8 3.9 4.6 86 1.0 WSW 9 15 5 8 - - 0.0
 
Date/Time
EDT
Temp
°C
App
Temp
°C
Dew
Point
°C
Rel
Hum
%
Delta-T
°C
Wind Press
QNH
hPa
Press
MSL
hPa
Rain since
9am
mm
Dir  Spd
km/h
Gust
km/h
Spd
kts
Gust
kts
20/11:30pm 6.7 3.8 4.5 86 1.0 WSW 9 20 5 11 - - 0.0
20/11:00pm 6.8 3.9 4.5 85 1.0 WSW 9 17 5 9 - - 0.0

Other Formats:

Comma delimited format used in spreadsheet applications
http://www.bom.gov.au/fwo/IDV60801/IDV60801.95913.axf

JavaScript Object Notation format (JSON) in row-major order
http://www.bom.gov.au/fwo/IDV60801/IDV60801.95913.json